Latest Weather Observations for Yanco

IDN60801

Issued at 3:32 pm EST Sunday 30 August 2015 (issued every 30 minutes, with the page automatically refreshed every 10 minutes)

About weather observations | Map of weather stations | Latest weather observations for NSW | Other Formats
Station Details ID: 074037 Name: YANCO AGRICULTURAL INSTITUTE Lat: -34.62 Lon: 146.43 Height: 164.0 m
Data from the previous 72 hours. | See also: Recent months at Yanco
Date/Time
EST
Temp
°C
App
Temp
°C
Dew
Point
Rel
Hum
%
Delta-T
°C
Wind Press
QNH
hPa
Press
MSL
hPa
Rain
since 9 am
mm
Dir
 
Spd
km/h
Gust
km/h
Spd
kts
Gust
kts
30/03:30pm 12.8 10.7 6.6 66 3.0 S 7 15 4 8 - - 0.2
30/03:00pm 13.2 11.1 6.5 64 3.2 S 7 15 4 8 - - 0.2
30/02:30pm 12.9 11.0 6.7 66 3.0 S 6 9 3 5 - - 0.2
30/02:00pm 13.0 11.7 7.7 70 2.6 SW 4 7 2 4 - - 0.2
30/01:30pm 11.7 9.7 7.2 74 2.2 SSW 7 13 4 7 - - 0.0
30/01:00pm 10.3 8.3 7.0 80 1.6 S 7 9 4 5 - - 0.0
30/12:30pm 10.1 8.1 7.3 83 1.3 S 7 11 4 6 - - 0.0
30/12:00pm 9.0 7.1 6.6 85 1.1 SSE 6 11 3 6 - - 0.0
30/11:30am 8.4 5.9 6.5 88 0.9 S 9 17 5 9 - - 0.0
30/11:00am 7.9 5.9 7.0 94 0.4 S 7 11 4 6 - - 0.0
30/10:30am 7.0 5.1 6.7 98 0.1 SSW 6 7 3 4 - - 0.0
30/10:00am 6.3 3.7 6.2 99 0.0 S 9 13 5 7 - - 0.0
30/09:30am 6.0 3.4 6.0 100 0.0 SSW 9 13 5 7 - - 0.0
30/09:00am 5.8 2.8 5.8 100 0.0 SSW 11 13 6 7 - - 0.0
30/08:30am 5.3 2.5 5.2 99 0.0 SSW 9 15 5 8 - - 0.0
30/08:00am 4.7 2.7 4.6 99 0.0 W 4 6 2 3 - - 0.0
30/07:30am 3.7 1.5 3.6 99 0.0 NNW 4 4 2 2 - - 0.0
30/07:00am 3.0 0.7 2.9 99 0.0 NNW 4 4 2 2 - - 0.0
30/06:30am 2.6 0.3 2.5 99 0.0 NNW 4 4 2 2 - - 0.0
30/06:00am 1.8 -0.7 1.7 99 0.0 NW 4 6 2 3 - - 0.0
30/05:30am 2.0 -0.4 1.9 99 0.0 NW 4 6 2 3 - - 0.0
30/05:00am 2.5 0.5 2.4 99 0.0 NW 2 4 1 2 - - 0.0
30/04:30am 2.5 0.5 2.4 99 0.0 NNW 2 4 1 2 - - 0.0
30/04:00am 2.6 0.3 2.5 99 0.0 N 4 6 2 3 - - 0.0
30/03:30am 2.6 -0.2 2.3 98 0.1 N 6 6 3 3 - - 0.0
30/03:00am 3.2 0.9 2.9 98 0.1 NNW 4 6 2 3 - - 0.0
30/02:30am 3.4 1.5 3.0 97 0.2 NW 2 4 1 2 - - 0.0
30/02:00am 3.3 1.0 2.7 96 0.2 NNW 4 6 2 3 - - 0.0
30/01:30am 3.8 1.2 3.1 95 0.3 N 6 6 3 3 - - 0.0
30/01:00am 4.0 1.4 3.3 95 0.3 N 6 6 3 3 - - 0.0
30/12:30am 4.2 2.0 3.2 93 0.4 WNW 4 6 2 3 - - 0.0
30/12:00am 5.0 2.5 3.5 90 0.6 W 6 7 3 4 - - 0.0
 
Date/Time
EST
Temp
°C
App
Temp
°C
Dew
Point
Rel
Hum
%
Delta-T
°C
Wind Press
QNH
hPa
Press
MSL
hPa
Rain
since 9 am
mm
Dir
 
Spd
km/h
Gust
km/h
Spd
kts
Gust
kts
29/11:30pm 4.9 2.3 3.2 89 0.7 WSW 6 7 3 4 - - 0.0
29/11:00pm 5.3 2.8 3.5 88 0.8 WSW 6 7 3 4 - - 0.0
29/10:30pm 5.3 3.1 3.5 88 0.8 WSW 4 6 2 3 - - 0.0
29/10:00pm 5.5 3.0 3.5 87 0.8 WSW 6 6 3 3 - - 0.0
29/09:30pm 5.0 2.2 3.2 88 0.7 SW 7 9 4 5 - - 0.0
29/09:00pm 5.7 3.5 3.5 86 0.9 WSW 4 6 2 3 - - 0.0
29/08:30pm 5.9 3.4 3.6 85 1.0 WSW 6 6 3 3 - - 0.0
29/08:00pm 5.9 3.4 3.6 85 1.0 SW 6 7 3 4 - - 0.0
29/07:30pm 6.5 3.1 3.8 83 1.2 SW 11 13 6 7 - - 0.0
29/07:00pm 7.5 4.0 3.7 77 1.6 SW 11 17 6 9 - - 0.0
29/06:30pm 8.1 4.3 3.8 74 1.9 SW 13 19 7 10 - - 0.0
29/06:00pm 9.0 4.8 3.8 70 2.3 SW 15 20 8 11 - - 0.0
29/05:30pm 10.2 4.6 3.7 64 2.9 SW 22 32 12 17 - - 0.0
29/05:00pm 11.1 5.8 2.9 57 3.6 SW 20 28 11 15 - - 0.0
29/04:30pm 11.9 7.6 3.2 55 3.9 SW 15 24 8 13 - - 0.0
29/04:00pm 12.0 6.2 2.5 52 4.2 SW 22 28 12 15 - - 0.0
29/03:30pm 12.3 7.2 3.3 54 4.0 WSW 19 26 10 14 - - 0.0
29/03:00pm 12.1 7.6 4.3 59 3.6 WSW 17 26 9 14 - - 0.0
29/02:30pm 11.8 6.6 3.8 58 3.6 SW 20 30 11 16 - - 0.0
29/02:00pm 12.3 7.9 5.0 61 3.4 SW 17 28 9 15 - - 0.0
29/01:30pm 12.1 7.3 4.6 60 3.4 SW 19 26 10 14 - - 0.0
29/01:00pm 11.7 6.6 4.2 60 3.4 SW 20 32 11 17 - - 0.0
29/12:30pm 11.4 6.1 4.8 64 3.0 SW 22 32 12 17 - - 0.0
29/12:00pm 11.3 7.0 5.2 66 2.8 WSW 17 24 9 13 - - 0.0
29/11:30am 10.6 6.1 4.1 64 2.9 WSW 17 22 9 12 - - 0.0
29/11:00am 10.2 6.0 3.9 65 2.8 WSW 15 26 8 14 - - 0.0
29/10:30am 9.6 7.0 4.2 69 2.4 WSW 7 11 4 6 - - 0.0
29/10:00am 8.7 5.7 3.9 72 2.1 SSW 9 13 5 7 - - 0.0
29/09:30am 7.6 4.5 3.8 77 1.6 SSW 9 11 5 6 - - 0.0
29/09:00am 6.7 3.3 3.9 82 1.2 SW 11 15 6 8 - - 0.2
29/08:30am 5.6 2.2 3.9 89 0.7 SSW 11 13 6 7 - - 0.2
29/08:00am 4.6 2.1 4.0 96 0.3 SW 6 7 3 4 - - 0.2
29/07:30am 3.6 1.4 3.5 99 0.0 WSW 4 6 2 3 - - 0.2
29/07:00am 2.9 -0.3 2.8 99 0.0 SSW 9 11 5 6 - - 0.2
29/06:30am 3.0 0.3 2.9 99 0.0 WSW 6 6 3 3 - - 0.2
29/06:00am 3.1 0.8 3.0 99 0.0 W 4 7 2 4 - - 0.2
29/05:30am 3.0 0.3 2.9 99 0.0 NNW 6 7 3 4 - - 0.0
29/05:00am 3.5 0.9 3.4 99 0.0 SW 6 9 3 5 - - 0.0
29/04:30am 3.8 1.7 3.7 99 0.0 WNW 4 4 2 2 - - 0.0
29/04:00am 4.3 2.3 4.2 99 0.0 WNW 4 6 2 3 - - 0.0
29/03:30am 4.4 2.3 4.1 98 0.1 W 4 6 2 3 - - 0.0
29/03:00am 4.6 2.6 4.2 97 0.2 WNW 4 6 2 3 - - 0.0
29/02:30am 5.2 3.2 4.3 94 0.4 W 4 6 2 3 - - 0.0
29/02:00am 5.7 3.8 4.7 93 0.4 W 4 6 2 3 - - 0.0
29/01:30am 5.9 4.0 4.9 93 0.4 WNW 4 6 2 3 - - 0.0
29/01:00am 6.2 4.7 5.0 92 0.5 WNW 2 4 1 2 - - 0.0
29/12:30am 6.4 4.5 4.9 90 0.7 W 4 7 2 4 - - 0.0
29/12:00am 6.6 4.8 5.6 93 0.4 NNW 4 6 2 3 - - 0.0
 
Date/Time
EST
Temp
°C
App
Temp
°C
Dew
Point
Rel
Hum
%
Delta-T
°C
Wind Press
QNH
hPa
Press
MSL
hPa
Rain
since 9 am
mm
Dir
 
Spd
km/h
Gust
km/h
Spd
kts
Gust
kts
28/11:30pm 6.4 4.2 5.2 92 0.5 N 6 7 3 4 - - 0.0
28/11:00pm 6.7 4.5 5.2 90 0.7 N 6 6 3 3 - - 0.0
28/10:30pm 6.8 5.3 4.8 87 0.9 WNW 2 4 1 2 - - 0.0
28/10:00pm 7.5 5.7 5.3 86 1.0 WNW 4 4 2 2 - - 0.0
28/09:30pm 7.5 6.0 5.0 84 1.1 W 2 4 1 2 - - 0.0
28/09:00pm 8.0 6.1 4.8 80 1.4 W 4 7 2 4 - - 0.0
28/08:30pm 8.4 6.2 5.2 80 1.4 W 6 6 3 3 - - 0.0
28/08:00pm 8.7 6.9 5.6 81 1.4 W 4 6 2 3 - - 0.0
28/07:30pm 8.8 7.1 6.1 83 1.2 WSW 4 6 2 3 - - 0.0
28/07:00pm 8.4 6.1 5.9 84 1.1 WSW 7 9 4 5 - - 0.0
28/06:30pm 9.2 6.5 5.8 79 1.6 SW 9 11 5 6 - - 0.0
28/06:00pm 10.4 7.1 6.2 75 2.0 SW 13 17 7 9 - - 0.0
28/05:30pm 11.9 7.6 6.8 71 2.5 SW 19 28 10 15 - - 0.0
28/05:00pm 12.6 8.4 7.3 70 2.6 SW 19 26 10 14 - - 0.0
28/04:30pm 13.6 9.4 7.6 67 3.0 SW 19 24 10 13 - - 0.0
28/04:00pm 13.7 10.0 8.1 69 2.8 SW 17 22 9 12 - - 0.0
28/03:30pm 14.9 11.3 8.4 65 3.3 WSW 17 24 9 13 - - 0.0
28/03:00pm 13.9 9.9 8.3 69 2.8 SW 19 24 10 13 - - 0.0
28/02:30pm 14.2 10.3 8.6 69 2.8 SW 19 24 10 13 - - 0.0
28/02:00pm 14.4 11.6 8.6 68 2.9 WSW 13 20 7 11 - - 0.0
28/01:30pm 14.0 10.5 8.8 71 2.6 SW 17 24 9 13 - - 0.0
28/01:00pm 14.3 11.6 9.1 71 2.7 WSW 13 20 7 11 - - 0.0
28/12:30pm 13.6 10.6 9.1 74 2.3 WSW 15 30 8 16 - - 0.0
28/12:00pm 13.2 10.9 8.9 75 2.2 W 11 17 6 9 - - 0.0
28/11:30am 12.3 9.8 8.0 75 2.1 SW 11 19 6 10 - - 0.0
28/11:00am 12.2 10.1 8.3 77 1.9 WSW 9 15 5 8 - - 0.0
28/10:30am 11.9 9.4 8.4 79 1.7 SW 11 17 6 9 - - 0.0
28/10:00am 11.4 8.5 8.3 81 1.5 S 13 19 7 10 - - 0.0
28/09:30am 10.9 8.0 8.3 84 1.3 SSW 13 19 7 10 - - 0.0
28/09:00am 10.1 6.8 8.0 87 1.0 SSW 15 20 8 11 - - 4.6
28/08:30am 9.2 6.7 8.1 93 0.5 SW 11 17 6 9 - - 4.6
28/08:00am 9.0 6.2 8.4 96 0.3 SW 13 17 7 9 - - 4.6
28/07:30am 9.1 6.2 8.3 95 0.4 SW 13 20 7 11 - - 4.6
28/07:00am 9.3 5.3 8.2 93 0.5 SSW 19 30 10 16 - - 4.6
28/06:30am 9.3 6.5 8.5 95 0.4 SW 13 19 7 10 - - 4.6
28/06:00am 9.4 7.0 8.6 95 0.4 SW 11 17 6 9 - - 4.6
28/05:30am 9.4 6.2 8.6 95 0.4 SW 15 20 8 11 - - 4.6
28/05:00am 9.5 6.0 8.7 95 0.4 WSW 17 22 9 12 - - 4.6
28/04:30am 9.5 6.4 8.9 96 0.3 WSW 15 24 8 13 - - 4.6
28/04:00am 9.5 6.5 9.2 98 0.1 SW 15 20 8 11 - - 4.6
28/03:30am 9.4 6.7 8.9 97 0.2 WSW 13 19 7 10 - - 4.6
28/03:00am 9.3 6.2 8.8 97 0.2 WSW 15 22 8 12 - - 4.6
28/02:30am 9.1 6.7 8.6 97 0.2 WSW 11 17 6 9 - - 4.6
28/02:00am 8.7 7.1 8.6 99 0.0 WNW 7 11 4 6 - - 4.6
28/01:30am 8.4 6.9 8.3 99 0.0 NNW 6 7 3 4 - - 4.6
28/01:00am 8.5 6.8 8.4 99 0.0 NNW 7 9 4 5 - - 4.6
28/12:30am 8.1 6.9 8.0 99 0.0 NNW 4 6 2 3 - - 4.6
28/12:00am 8.0 6.8 7.9 99 0.0 NNW 4 6 2 3 - - 4.4
 
Date/Time
EST
Temp
°C
App
Temp
°C
Dew
Point
Rel
Hum
%
Delta-T
°C
Wind Press
QNH
hPa
Press
MSL
hPa
Rain
since 9 am
mm
Dir
 
Spd
km/h
Gust
km/h
Spd
kts
Gust
kts
27/11:30pm 8.0 7.1 7.9 99 0.0 NW 2 4 1 2 - - 4.4
27/11:00pm 7.9 6.6 7.6 98 0.1 N 4 6 2 3 - - 4.4
27/10:30pm 8.5 6.9 7.9 96 0.3 NNW 6 7 3 4 - - 4.4
27/10:00pm 9.4 7.8 8.0 91 0.7 WNW 6 7 3 4 - - 4.4
27/09:30pm 9.5 7.7 7.9 90 0.8 WSW 7 13 4 7 - - 4.4
27/09:00pm 9.0 7.3 8.2 95 0.4 W 7 13 4 7 - - 4.4
27/08:30pm 8.7 7.8 7.6 93 0.5 NW 2 4 1 2 - - 4.4
27/08:00pm 9.0 7.1 7.6 91 0.7 WNW 7 9 4 5 - - 4.4
27/07:30pm 9.6 7.0 7.9 89 0.8 WNW 11 15 6 8 - - 4.4
27/07:00pm 9.8 7.2 7.6 86 1.1 SW 11 17 6 9 - - 4.4
27/06:30pm 10.3 5.1 7.4 82 1.4 SW 24 33 13 18 - - 4.4
27/06:18pm 11.1 6.3 7.4 78 1.8 WSW 22 39 12 21 - - 4.2
27/06:00pm 11.5 10.3 10.2 92 0.7 WNW 7 9 4 5 - - 4.2
27/05:30pm 11.7 10.6 10.1 90 0.8 WNW 6 7 3 4 - - 4.2
27/05:00pm 12.2 11.0 9.6 84 1.3 W 6 9 3 5 - - 3.6
27/04:30pm 12.2 10.1 9.6 84 1.3 WSW 11 17 6 9 - - 3.6
27/04:00pm 12.2 9.5 9.0 81 1.6 W 13 24 7 13 - - 3.6

Other Formats:

Comma delimited format used in spreadsheet applications
http://www.bom.gov.au/fwo/IDN60801/IDN60801.95705.axf

JavaScript Object Notation format (JSON) in row-major order
http://www.bom.gov.au/fwo/IDN60801/IDN60801.95705.json